Date,TemperatureHighF,TemperatureAvgF,TemperatureLowF,DewpointHighF,DewpointAvgF,DewpointLowF,HumidityHigh,HumidityAvg,HumidityLow,PressureMaxIn,PressureMinIn,WindSpeedMaxMPH,WindSpeedAvgMPH,GustSpeedMaxMPH,PrecipitationSumIn
2013-1-1,37.0,32.4,28.0,17.0,12.0,6.0,61,43,32,0.00,40.00,13,8,24,0.02
2013-1-2,41.0,33.5,26.0,10.0,7.3,5.0,41,33,25,0.00,40.00,16,12,30,0.00
2013-1-3,43.0,36.6,31.0,10.0,5.7,2.0,35,27,19,0.00,40.00,15,12,27,0.00
2013-1-4,44.0,37.5,31.0,4.0,0.9,-8.0,28,21,12,0.00,40.00,14,8,22,0.00
2013-1-5,47.0,40.1,36.0,21.0,4.7,-3.0,50,24,17,0.00,40.00,21,6,27,0.00
2013-1-6,37.0,32.3,30.0,33.0,30.0,20.0,99,92,51,0.00,40.00,22,12,29,0.09
2013-1-7,45.0,36.5,28.0,31.0,24.3,12.0,99,67,29,0.00,40.00,9,6,17,0.03
2013-1-8,53.0,46.8,42.0,29.0,22.4,12.0,43,38,27,0.00,40.00,11,9,17,0.01
2013-1-9,59.0,48.2,39.0,35.0,28.3,25.0,79,48,33,0.00,40.00,28,15,37,0.00
2013-1-10,36.0,29.0,24.0,35.0,24.4,19.0,98,83,63,0.00,40.00,25,9,38,0.00
2013-1-11,31.0,25.6,22.0,22.0,18.9,11.0,87,76,63,0.00,40.00,6,4,17,0.01
2013-1-12,36.0,27.4,22.0,18.0,11.9,5.0,76,53,35,0.00,40.00,8,5,11,0.01
2013-1-13,39.0,26.7,19.0,15.0,8.4,-0.0,64,47,27,0.00,40.00,8,6,17,0.00
2013-1-14,28.0,20.6,13.0,0.0,-4.8,-8.0,48,33,21,0.00,40.00,16,9,29,0.00
2013-1-15,38.0,30.0,22.0,11.0,1.8,-8.0,38,29,25,0.00,40.00,14,12,24,0.00
2013-1-16,45.0,37.4,31.0,18.0,13.9,11.0,46,38,31,0.00,40.00,16,13,29,0.00
2013-1-17,51.0,41.4,34.0,13.0,9.1,4.0,40,28,16,0.00,40.00,17,13,29,0.00
2013-1-18,50.0,43.2,38.0,6.0,4.7,1.0,23,20,16,0.00,40.00,17,14,29,0.00
2013-1-19,51.0,44.0,38.0,7.0,3.6,2.0,23,19,14,0.00,40.00,17,13,28,0.00
2013-1-20,52.0,45.2,40.0,4.0,1.7,-2.0,19,16,13,0.00,40.00,13,10,24,0.00
2013-1-21,55.0,46.8,40.0,5.0,0.1,-6.0,18,14,10,0.00,40.00,15,10,28,0.00
2013-1-22,55.0,47.9,43.0,5.0,0.7,-5.0,16,14,11,0.00,40.00,13,8,20,0.00
2013-1-23,58.0,50.6,43.0,33.0,12.7,2.0,68,24,14,0.00,40.00,16,7,21,0.00
2013-1-24,47.0,43.2,40.0,46.0,42.2,33.0,100,97,71,0.00,40.00,18,7,24,0.56
2013-1-25,44.0,42.3,40.0,44.0,42.3,40.0,100,100,99,0.00,40.00,13,10,22,0.22
2013-1-26,56.0,46.7,43.0,52.0,44.9,42.0,100,94,73,0.00,40.00,19,8,27,0.20
2013-1-27,44.0,35.7,29.0,44.0,33.0,24.0,99,90,74,0.00,40.00,19,10,29,0.08
2013-1-28,37.0,31.1,27.0,25.0,22.9,21.0,82,72,56,0.00,40.00,10,5,19,0.01
2013-1-29,48.0,38.7,29.0,27.0,24.9,23.0,81,59,41,0.00,40.00,12,5,16,0.00
2013-1-30,57.0,45.2,37.0,30.0,27.2,25.0,67,51,34,0.00,40.00,13,7,23,0.00
2013-1-31,55.0,49.2,42.0,31.0,27.9,26.0,53,44,37,0.00,40.00,13,8,21,0.00
2013-2-1,58.0,50.1,45.0,31.0,27.9,26.0,49,42,35,0.00,40.00,9,5,14,0.00
2013-2-2,52.0,48.6,44.0,39.0,29.3,26.0,83,49,38,0.00,40.00,11,8,21,0.05
2013-2-3,59.0,48.8,43.0,38.0,31.0,19.0,75,53,28,0.00,40.00,8,5,15,0.05
2013-2-4,61.0,52.1,46.0,31.0,23.9,20.0,44,33,24,0.00,40.00,9,5,14,0.00
2013-2-5,60.0,51.0,40.0,38.0,27.2,13.0,92,43,20,0.00,40.00,16,7,23,0.00
2013-2-6,57.0,45.6,34.0,36.0,12.9,-20.0,89,39,5,0.00,40.00,9,5,22,0.00
2013-2-7,51.0,43.2,35.0,39.0,22.9,-15.0,98,57,6,0.00,40.00,23,14,34,0.02
2013-2-8,34.0,29.2,26.0,34.0,28.3,24.0,98,97,95,0.00,40.00,18,10,31,0.05
2013-2-9,41.0,31.2,25.0,30.0,26.3,23.0,95,83,57,0.00,40.00,16,8,26,0.16
2013-2-10,44.0,33.4,28.0,34.0,29.2,23.0,97,87,55,0.00,40.00,15,9,21,0.01
2013-2-11,43.0,34.7,28.0,23.0,12.6,0.0,74,44,22,0.00,40.00,8,4,16,0.01
2013-2-12,49.0,38.9,33.0,20.0,6.2,-3.0,47,26,21,0.00,40.00,8,4,14,0.00
2013-2-13,53.0,44.5,38.0,19.0,15.5,10.0,45,32,22,0.00,40.00,8,6,16,0.00
2013-2-14,56.0,48.0,41.0,22.0,17.4,14.0,37,30,21,0.00,40.00,14,8,22,0.00
2013-2-15,58.0,48.1,40.0,21.0,16.2,9.0,44,29,18,0.00,40.00,13,9,27,0.00
2013-2-16,57.0,50.0,44.0,16.0,11.9,6.0,27,22,16,0.00,40.00,12,6,17,0.00
2013-2-17,59.0,49.9,43.0,28.0,16.6,6.0,55,28,17,0.00,40.00,12,5,19,0.00
2013-2-18,53.0,43.2,35.0,39.0,30.8,24.0,98,65,37,0.00,40.00,28,16,36,0.00
2013-2-19,34.0,31.0,31.0,34.0,25.6,-99.9,99,93,98,0.00,40.00,29,24,38,0.12
2013-2-20,33.0,29.8,27.0,31.0,26.8,21.0,96,88,75,0.00,40.00,10,6,18,0.11
2013-2-21,44.0,34.2,28.0,27.0,22.9,16.0,84,65,35,0.00,40.00,7,5,18,0.02
2013-2-22,54.0,42.3,35.0,25.0,17.3,6.0,51,37,28,0.00,40.00,9,5,22,0.00
2013-2-23,56.0,42.4,33.0,31.0,25.1,16.0,79,52,21,0.00,40.00,10,7,22,0.00
2013-2-24,44.0,35.6,26.0,27.0,4.5,-6.0,77,30,15,0.00,40.00,16,9,33,0.00
2013-2-25,57.0,44.5,36.0,17.0,7.0,-5.0,39,22,17,0.00,40.00,10,6,18,0.00
2013-2-26,51.0,42.5,35.0,22.0,12.7,3.0,54,32,17,0.00,40.00,10,7,25,0.00
2013-2-27,52.0,42.5,35.0,10.0,4.1,1.0,24,20,16,0.00,40.00,12,8,19,0.00
2013-2-28,58.0,48.1,39.0,11.0,6.1,2.0,28,18,12,0.00,40.00,9,7,14,0.00
2013-3-1,64.0,53.0,45.0,17.0,13.9,6.0,32,21,16,0.00,40.00,15,8,25,0.00
2013-3-2,69.0,56.8,50.0,26.0,18.5,15.0,26,22,17,0.00,40.00,17,10,25,0.00
2013-3-3,57.0,50.6,42.0,37.0,26.6,15.0,78,42,21,0.00,40.00,23,12,36,0.00
2013-3-4,61.0,48.0,40.0,43.0,37.0,32.0,97,68,36,0.00,40.00,12,7,19,0.00
2013-3-5,54.0,45.5,36.0,43.0,39.0,33.0,98,80,45,0.00,40.00,31,21,42,0.00
2013-3-6,38.0,36.0,33.0,38.0,35.9,33.0,99,99,98,0.00,40.00,31,18,42,0.02
2013-3-7,39.0,35.8,32.0,39.0,34.5,30.0,99,95,75,0.00,40.00,26,20,36,0.05
2013-3-8,36.0,32.5,29.0,35.0,32.3,29.0,99,98,97,0.00,40.00,16,6,22,0.25
2013-3-9,47.0,37.7,30.0,34.0,29.8,21.0,98,75,47,0.00,40.00,8,5,18,0.05
2013-3-10,55.0,47.7,39.0,23.0,14.5,8.0,46,28,18,0.00,40.00,10,7,20,0.00
2013-3-11,66.0,53.7,47.0,29.0,17.0,9.0,36,24,15,0.00,40.00,11,6,14,0.00
2013-3-12,69.0,58.4,51.0,25.0,16.3,9.0,28,19,15,0.00,40.00,12,5,18,0.00
2013-3-13,73.0,63.1,55.0,26.0,19.3,13.0,22,18,15,0.00,40.00,11,6,18,0.00
2013-3-14,79.0,66.6,60.0,32.0,23.6,18.0,24,20,15,0.00,40.00,13,7,20,0.00
2013-3-15,75.0,64.7,54.0,39.0,28.6,17.0,47,27,12,0.00,40.00,19,12,28,0.00
2013-3-16,69.0,57.7,50.0,35.0,25.1,14.0,54,30,15,0.00,40.00,9,6,22,0.00
2013-3-17,70.0,54.5,45.0,41.0,24.5,9.0,74,37,9,0.00,40.00,16,7,29,0.00
2013-3-18,67.0,55.0,48.0,41.0,21.0,11.0,67,28,17,0.00,40.00,11,5,29,0.00
2013-3-19,68.0,55.2,45.0,36.0,27.8,17.0,52,36,25,0.00,40.00,8,5,16,0.00
2013-3-20,65.0,54.1,48.0,44.0,35.0,29.0,63,49,32,0.00,40.00,11,6,22,0.00
2013-3-21,69.0,51.6,42.0,41.0,30.6,5.0,88,52,9,0.00,40.00,10,6,21,0.00
2013-3-22,64.0,47.8,40.0,34.0,23.5,11.0,77,41,22,0.00,40.00,12,7,24,0.00
2013-3-23,64.0,50.7,42.0,26.0,4.6,-18.0,40,17,5,0.00,40.00,12,7,21,0.00
2013-3-24,67.0,54.7,47.0,23.0,8.8,-18.0,27,17,5,0.00,40.00,9,6,14,0.00
2013-3-25,66.0,56.7,51.0,38.0,23.8,10.0,59,30,16,0.00,40.00,17,11,25,0.00
2013-3-26,65.0,54.2,48.0,42.0,32.6,25.0,74,46,27,0.00,40.00,17,12,25,0.00
2013-3-27,61.0,52.0,46.0,44.0,37.3,33.0,68,58,49,0.00,40.00,16,9,26,0.00
2013-3-28,65.0,57.0,51.0,42.0,36.9,28.0,71,48,37,0.00,40.00,17,9,26,0.00
2013-3-29,68.0,57.4,50.0,41.0,35.2,31.0,72,45,26,0.00,40.00,19,12,25,0.00
2013-3-30,67.0,55.3,46.0,39.0,32.7,24.0,59,43,27,0.00,40.00,25,18,34,0.00
2013-3-31,49.0,44.2,42.0,47.0,41.8,28.0,99,92,52,0.00,40.00,22,15,32,0.23
2013-4-1,51.0,43.2,38.0,48.0,41.9,38.0,99,95,80,0.00,40.00,15,9,22,0.08
2013-4-2,68.0,51.6,42.0,40.0,34.6,25.0,90,57,26,0.00,40.00,8,5,18,0.00
2013-4-3,73.0,59.3,51.0,41.0,29.8,23.0,56,34,22,0.00,40.00,16,8,22,0.00
2013-4-4,66.0,55.8,49.0,46.0,38.8,29.0,89,54,39,0.00,40.00,19,12,26,0.00
2013-4-5,63.0,51.0,45.0,45.0,40.1,30.0,93,68,43,0.00,40.00,12,7,24,0.00
2013-4-6,69.0,52.3,43.0,41.0,35.7,30.0,86,56,30,0.00,40.00,11,7,22,0.00
2013-4-7,67.0,52.7,43.0,41.0,34.7,21.0,91,55,21,0.00,40.00,12,6,25,0.00
2013-4-8,48.0,40.1,35.0,39.0,30.8,20.0,87,70,48,0.00,40.00,10,8,31,0.00
2013-4-9,59.0,45.1,35.0,26.0,21.5,14.0,62,42,21,0.00,40.00,10,5,17,0.00
2013-4-10,71.0,56.7,45.0,25.0,15.2,9.0,30,20,12,0.00,40.00,10,7,24,0.00
2013-4-11,69.0,58.5,50.0,40.0,33.4,26.0,68,41,24,0.00,40.00,16,9,29,0.00
2013-4-12,76.0,60.6,52.0,43.0,36.2,29.0,61,42,18,0.00,40.00,14,6,21,0.00
2013-4-13,65.0,55.0,46.0,47.0,42.2,38.0,97,64,45,0.00,40.00,20,13,27,0.00
2013-4-14,62.0,47.0,41.0,49.0,43.6,41.0,99,90,49,0.00,40.00,16,11,26,0.01
2013-4-15,43.0,41.0,38.0,42.0,40.6,38.0,99,98,93,0.00,40.00,29,19,41,0.03
2013-4-16,47.0,37.9,28.0,38.0,26.7,18.0,99,67,39,0.00,40.00,25,6,36,0.03
2013-4-17,55.0,42.7,32.0,22.0,17.6,14.0,58,38,21,0.00,40.00,6,4,17,0.00
2013-4-18,60.0,48.3,37.0,14.0,8.0,0.0,33,21,11,0.00,40.00,12,7,23,0.00
2013-4-19,73.0,57.2,47.0,23.0,13.8,7.0,30,19,10,0.00,40.00,7,5,24,0.00
2013-4-20,76.0,62.6,52.0,31.0,25.3,14.0,38,26,10,0.00,40.00,11,6,21,0.00
2013-4-21,77.0,66.4,59.0,34.0,21.1,-13.0,29,19,4,0.00,40.00,19,12,31,0.00
2013-4-22,72.0,61.8,52.0,44.0,31.3,0.0,64,35,8,0.00,40.00,17,10,27,0.00
2013-4-23,72.0,61.5,51.0,41.0,26.4,15.0,69,31,11,0.00,40.00,10,7,24,0.00
2013-4-24,70.0,56.3,43.0,48.0,36.9,27.0,99,55,23,0.00,40.00,21,9,27,0.00
2013-4-25,61.0,49.0,41.0,47.0,41.0,32.0,100,77,45,0.00,40.00,19,15,31,0.01
2013-4-26,77.0,60.3,43.0,43.0,36.0,18.0,90,47,11,0.00,40.00,13,7,22,0.01
2013-4-27,83.0,69.4,60.0,31.0,26.0,14.0,30,21,8,0.00,40.00,8,5,17,0.00
2013-4-28,85.0,71.4,62.0,35.0,28.4,8.0,33,21,11,0.00,40.00,14,6,25,0.00
2013-4-29,81.0,69.9,58.0,47.0,25.8,8.0,63,23,10,0.00,40.00,17,8,25,0.00
2013-4-30,69.0,57.9,47.0,48.0,41.0,24.0,98,57,29,0.00,40.00,17,13,25,0.00
2013-5-1,75.0,62.2,47.0,44.0,12.5,-20.0,89,23,3,0.00,40.00,10,7,25,0.00
2013-5-2,70.0,60.6,50.0,2.0,-8.3,-17.0,10,6,4,0.00,40.00,10,8,25,0.00
2013-5-3,83.0,65.4,56.0,17.0,-1.6,-13.0,16,7,5,0.00,40.00,14,9,22,0.00
2013-5-4,70.0,60.9,45.0,45.0,28.5,13.0,98,35,12,0.00,40.00,24,14,32,0.00
2013-5-5,44.0,42.2,41.0,44.0,42.2,41.0,100,99,99,0.00,40.00,33,26,47,0.05
2013-5-6,46.0,43.1,41.0,46.0,42.7,40.0,100,99,90,0.00,40.00,30,23,44,0.56
2013-5-7,50.0,43.9,40.0,47.0,41.4,39.0,100,91,72,0.00,40.00,22,14,28,0.02
2013-5-8,58.0,46.6,40.0,51.0,43.1,40.0,99,88,63,0.00,40.00,18,13,27,0.01
2013-5-9,67.0,55.0,44.0,47.0,44.6,42.0,92,69,46,0.00,40.00,11,5,19,0.00
2013-5-10,80.0,65.3,52.0,45.0,40.9,34.0,74,45,20,0.00,40.00,6,4,16,0.00
2013-5-11,84.0,71.9,62.0,44.0,36.1,29.0,40,29,14,0.00,40.00,9,6,17,0.00
2013-5-12,86.0,75.0,67.0,42.0,35.4,27.0,37,25,12,0.00,40.00,15,6,25,0.00
2013-5-13,87.0,77.1,69.0,39.0,31.1,24.0,33,20,12,0.00,40.00,18,10,27,0.00
2013-5-14,75.0,66.4,59.0,38.0,30.0,23.0,45,27,17,0.00,40.00,25,14,37,0.00
2013-5-15,71.0,62.1,55.0,49.0,42.9,36.0,78,50,38,0.00,40.00,17,9,26,0.00
2013-5-16,66.0,52.8,50.0,49.0,21.7,-99.9,93,59,32,0.00,40.00,14,8,21,0.00
2013-5-17,67.0,53.2,46.0,48.0,35.8,-99.9,85,66,36,0.00,40.00,15,8,29,0.00
2013-5-18,74.0,59.9,48.0,38.0,27.8,15.0,58,32,15,0.00,40.00,13,7,25,0.00
2013-5-19,78.0,62.8,51.0,36.0,28.0,16.0,54,29,12,0.00,40.00,12,6,24,0.00
2013-5-20,80.0,67.0,56.0,40.0,27.6,17.0,40,25,10,0.00,40.00,12,7,21,0.00
2013-5-21,78.0,67.9,58.0,48.0,34.7,15.0,67,32,15,0.00,40.00,20,10,29,0.00
2013-5-22,66.0,56.1,47.0,46.0,34.8,19.0,87,47,28,0.00,40.00,19,10,34,0.00
2013-5-23,60.0,50.6,42.0,45.0,30.6,10.0,87,49,26,0.00,40.00,20,12,32,0.00
2013-5-24,65.0,53.2,44.0,45.0,34.3,20.0,85,51,32,0.00,40.00,23,11,34,0.00
2013-5-25,62.0,52.4,44.0,46.0,42.8,37.0,89,71,51,0.00,40.00,21,15,32,0.00
2013-5-26,67.0,55.7,46.0,46.0,40.1,34.0,90,58,33,0.00,40.00,18,10,29,0.00
2013-5-27,76.0,59.8,50.0,43.0,34.6,25.0,68,43,17,0.00,40.00,13,6,29,0.00
2013-5-28,63.0,55.2,47.0,49.0,43.0,37.0,92,65,48,0.00,40.00,13,7,29,0.00
2013-5-29,74.0,61.0,52.0,45.0,39.6,31.0,75,47,27,0.00,40.00,12,7,25,0.00
2013-5-30,86.0,70.1,56.0,39.0,20.3,0.0,48,19,4,0.00,40.00,10,6,20,0.00
2013-5-31,89.0,73.6,60.0,42.0,24.8,14.0,36,18,8,0.00,40.00,13,5,25,0.00
2013-6-1,92.0,78.1,71.0,33.0,26.9,13.0,22,16,6,0.00,40.00,15,7,20,0.00
2013-6-2,78.0,70.9,61.0,50.0,39.0,19.0,56,34,12,0.00,40.00,21,13,31,0.00
2013-6-3,72.0,62.8,56.0,48.0,37.4,24.0,66,40,26,0.00,40.00,19,16,29,0.00
2013-6-4,74.0,62.5,56.0,50.0,42.6,31.0,78,49,31,0.00,40.00,18,15,29,0.00
2013-6-5,78.0,67.8,58.0,50.0,38.4,14.0,66,36,17,0.00,40.00,15,11,21,0.00
2013-6-6,82.0,69.2,61.0,50.0,47.0,43.0,63,47,27,0.00,40.00,17,9,22,0.00
2013-6-7,94.0,79.4,67.0,50.0,43.4,36.0,53,29,14,0.00,40.00,10,6,16,0.00
2013-6-8,92.0,79.0,67.0,52.0,42.2,35.0,52,28,19,0.00,40.00,18,10,25,0.00
2013-6-9,79.0,68.5,60.0,46.0,36.2,15.0,51,33,9,0.00,40.00,25,15,36,0.00
2013-6-10,69.0,59.3,46.0,48.0,43.3,29.0,100,59,32,0.00,40.00,20,15,30,0.00
2013-6-11,85.0,71.3,58.0,43.0,37.0,23.0,55,30,17,0.00,40.00,18,11,30,0.00
2013-6-12,76.0,68.3,59.0,52.0,42.6,29.0,78,42,22,0.00,40.00,19,13,27,0.00
2013-6-13,79.0,67.6,59.0,47.0,37.9,14.0,63,35,17,0.00,40.00,15,8,27,0.00
2013-6-14,82.0,68.4,58.0,49.0,30.0,12.0,71,27,11,0.00,40.00,18,9,26,0.00
2013-6-15,72.0,62.4,53.0,47.0,39.5,14.0,72,45,16,0.00,40.00,19,15,30,0.00
2013-6-16,82.0,68.7,58.0,42.0,32.8,16.0,45,28,14,0.00,40.00,10,6,19,0.00
2013-6-17,85.0,69.4,60.0,36.0,30.1,20.0,41,25,14,0.00,40.00,10,6,26,0.00
2013-6-18,78.0,66.6,58.0,46.0,37.2,29.0,61,35,22,0.00,40.00,17,10,27,0.00
2013-6-19,81.0,63.6,49.0,42.0,21.9,6.0,61,28,6,0.00,40.00,15,6,23,0.00
2013-6-20,80.0,62.9,54.0,31.0,24.9,18.0,40,26,10,0.00,40.00,11,6,21,0.00
2013-6-22,79.0,73.0,64.0,48.0,40.7,33.0,45,32,23,0.00,40.00,14,8,21,0.00
2013-6-23,67.0,60.9,54.0,54.0,46.2,37.0,95,61,40,0.00,40.00,17,10,27,0.00
2013-6-24,56.0,51.8,49.0,53.0,50.4,46.0,100,95,75,0.00,40.00,17,11,26,0.00
2013-6-25,80.0,65.6,51.0,55.0,52.1,46.0,100,64,41,0.00,40.00,12,8,19,0.00
2013-6-26,86.0,73.0,63.0,54.0,52.3,45.0,66,50,32,0.00,40.00,15,9,25,0.00
2013-6-27,90.0,77.6,69.0,53.0,49.9,45.0,51,39,24,0.00,40.00,18,12,30,0.00
2013-6-28,94.0,80.7,70.0,55.0,50.0,45.0,51,36,21,0.00,40.00,16,8,26,0.00
2013-6-29,99.0,86.6,76.0,48.0,42.2,35.0,33,22,12,0.00,40.00,15,8,24,0.00
2013-6-30,102.0,87.9,79.0,50.0,40.4,32.0,31,20,9,0.00,40.00,16,7,25,0.00
2013-7-1,89.0,77.8,71.0,52.0,47.0,41.0,46,34,23,0.00,40.00,21,14,32,0.00
2013-7-2,90.0,77.7,69.0,52.0,45.0,34.0,49,33,15,0.00,40.00,20,13,27,0.00
2013-7-3,91.0,79.4,71.0,52.0,47.4,44.0,48,33,23,0.00,40.00,16,8,23,0.00
2013-7-4,88.0,77.5,67.0,52.0,48.5,42.0,53,37,26,0.00,40.00,20,11,31,0.00
2013-7-5,82.0,72.2,66.0,52.0,45.8,41.0,59,40,26,0.00,40.00,19,13,28,0.00
2013-7-6,84.0,72.1,67.0,53.0,48.2,44.0,55,44,31,0.00,40.00,20,15,30,0.00
2013-7-7,88.0,76.2,64.0,53.0,42.8,36.0,67,34,17,0.00,40.00,16,10,28,0.00
2013-7-8,93.0,80.8,73.0,38.0,32.0,27.0,28,18,10,0.00,40.00,18,7,31,0.00
2013-7-9,94.0,82.5,74.0,41.0,31.9,28.0,23,17,10,0.00,40.00,17,8,29,0.00
2013-7-10,85.0,74.5,66.0,54.0,36.2,-99.9,59,29,17,0.00,40.00,13,7,20,0.00
2013-7-11,75.0,67.0,59.0,56.0,49.4,40.0,75,55,29,0.00,40.00,17,11,21,0.03
2013-7-12,82.0,69.0,62.0,54.0,51.2,41.0,76,56,31,0.00,40.00,18,13,30,0.01
2013-7-13,88.0,76.8,65.0,46.0,41.4,35.0,50,29,18,0.00,40.00,14,7,25,0.00
2013-7-14,94.0,81.2,72.0,35.0,33.0,30.0,24,18,11,0.00,40.00,7,4,15,0.00
2013-7-15,84.0,76.2,69.0,41.0,33.5,30.0,27,21,17,0.00,40.00,21,10,35,0.00
2013-7-16,81.0,73.5,64.0,32.0,25.4,11.0,26,17,8,0.00,40.00,18,15,29,0.00
2013-7-17,87.0,72.2,61.0,37.0,28.3,17.0,41,21,11,0.00,40.00,16,12,24,0.00
2013-7-18,92.0,79.1,70.0,40.0,27.4,15.0,26,16,10,0.00,40.00,13,6,21,0.00
2013-7-19,90.0,79.0,68.0,47.0,35.0,23.0,47,22,14,0.00,40.00,16,10,25,0.00
2013-7-20,85.0,73.2,68.0,58.0,43.6,-99.9,68,38,21,0.00,40.00,19,12,30,0.00
2013-7-21,76.0,70.5,67.0,59.0,54.0,41.0,65,57,38,0.00,40.00,16,11,20,0.00
2013-7-22,81.0,68.9,63.0,60.0,56.5,48.0,83,66,48,0.00,40.00,18,10,30,0.15
2013-7-23,82.0,70.8,64.0,60.0,53.9,48.0,81,56,40,0.00,40.00,17,9,28,0.00
2013-7-24,86.0,75.2,63.0,54.0,50.9,47.0,70,44,29,0.00,40.00,14,7,24,0.00
2013-7-25,88.0,78.2,72.0,50.0,46.8,43.0,39,33,26,0.00,40.00,16,8,25,0.00
2013-7-26,82.0,75.4,71.0,56.0,50.3,45.0,49,41,34,0.00,40.00,10,6,15,0.03
2013-7-27,87.0,76.0,67.0,57.0,52.7,48.0,62,45,34,0.00,40.00,18,9,27,0.01
2013-7-28,79.0,68.9,61.0,53.0,47.0,34.0,68,48,25,0.00,40.00,21,14,31,0.00
2013-7-29,79.0,68.4,61.0,41.0,29.8,20.0,39,24,13,0.00,40.00,20,15,26,0.00
2013-7-30,83.0,70.8,64.0,46.0,36.7,22.0,50,30,18,0.00,40.00,19,14,26,0.00
2013-7-31,80.0,70.6,63.0,47.0,41.5,22.0,51,36,17,0.00,40.00,16,11,26,0.00
2013-8-1,82.0,71.4,64.0,46.0,39.7,27.0,45,32,21,0.00,40.00,12,7,18,0.00
2013-8-2,77.0,67.7,60.0,48.0,37.1,27.0,65,34,23,0.00,40.00,17,10,26,0.00
2013-8-3,80.0,68.4,60.0,47.0,37.5,28.0,59,34,19,0.00,40.00,17,14,26,0.00
2013-8-4,81.0,69.7,61.0,44.0,34.8,23.0,40,29,16,0.00,40.00,18,12,28,0.00
2013-8-5,82.0,69.8,63.0,38.0,28.0,-6.0,39,23,6,0.00,40.00,19,14,28,0.00
2013-8-6,79.0,67.4,60.0,43.0,26.1,-8.0,48,25,5,0.00,40.00,22,16,33,0.00
2013-8-7,77.0,64.3,56.0,46.0,35.7,19.0,59,37,14,0.00,40.00,17,13,27,0.00
2013-8-8,78.0,64.4,58.0,47.0,41.3,36.0,63,45,22,0.00,40.00,19,13,28,0.00
2013-8-9,77.0,65.0,55.0,47.0,37.8,23.0,71,42,14,0.00,40.00,19,12,29,0.00
2013-8-10,76.0,67.1,59.0,46.0,41.6,23.0,55,40,22,0.00,40.00,14,8,23,0.00
2013-8-11,82.0,69.6,61.0,46.0,41.2,36.0,52,37,25,0.00,40.00,14,8,23,0.00
2013-8-12,85.0,73.1,65.0,48.0,39.9,32.0,48,31,20,0.00,40.00,14,7,23,0.00
2013-8-13,90.0,77.1,69.0,44.0,33.7,-99.9,32,22,14,0.00,40.00,14,8,22,0.00
2013-8-14,92.0,78.8,71.0,35.0,23.9,-99.9,21,14,8,0.00,40.00,14,7,25,0.00
2013-8-15,91.0,71.0,73.0,47.0,11.3,-99.9,39,14,10,0.00,40.00,19,9,29,0.00
2013-8-16,89.0,75.8,69.0,48.0,36.0,-99.9,40,26,19,0.00,40.00,17,11,27,0.00
2013-8-17,90.0,78.7,69.0,42.0,37.7,29.0,35,24,13,0.00,40.00,17,12,27,0.00
2013-8-18,93.0,80.0,72.0,54.0,39.9,25.0,53,25,17,0.00,40.00,20,7,31,0.00
2013-8-19,89.0,70.1,63.0,58.0,41.2,-99.9,75,46,23,0.00,40.00,16,10,25,0.01
2013-8-20,86.0,75.5,69.0,49.0,37.7,-99.9,47,29,16,0.00,40.00,22,14,30,0.03
2013-8-21,89.0,76.9,68.0,38.0,31.7,25.0,29,20,12,0.00,40.00,20,15,30,0.00
2013-8-22,88.0,78.7,68.0,39.0,31.2,18.0,31,18,14,0.00,40.00,26,18,37,0.00
2013-8-23,88.0,76.1,67.0,42.0,29.5,22.0,34,19,11,0.00,40.00,19,14,30,0.00
2013-8-24,87.0,74.8,65.0,37.0,29.5,22.0,35,20,10,0.00,40.00,16,13,26,0.00
2013-8-25,85.0,72.4,65.0,38.0,29.5,19.0,34,21,12,0.00,40.00,17,11,28,0.00
2013-8-26,85.0,71.6,64.0,58.0,49.4,19.0,63,47,15,0.00,40.00,13,6,21,0.00
2013-8-27,78.0,66.7,62.0,61.0,58.6,53.0,92,76,53,0.00,40.00,8,5,13,0.00
2013-8-28,87.0,79.9,71.0,56.0,52.5,47.0,48,39,32,0.00,40.00,20,15,32,0.00
2013-8-29,93.0,79.1,70.0,49.0,44.8,41.0,42,30,21,0.00,40.00,15,11,22,0.00
2013-8-30,90.0,76.6,68.0,63.0,53.3,42.0,80,46,32,0.00,40.00,19,13,31,0.00
2013-8-31,82.0,70.7,65.0,66.0,62.3,59.0,94,76,51,0.00,40.00,21,16,36,0.00
2013-9-1,82.0,69.7,62.0,63.0,61.2,59.0,100,77,50,0.00,40.00,21,15,31,0.00
2013-9-2,87.0,72.1,64.0,59.0,54.8,48.0,79,58,33,0.00,40.00,17,13,27,0.00
2013-9-3,87.0,75.8,69.0,54.0,50.6,46.0,58,42,27,0.00,40.00,19,12,30,0.00
2013-9-4,91.0,77.8,70.0,49.0,47.5,45.0,46,36,22,0.00,40.00,17,11,26,0.00
2013-9-5,91.0,79.4,72.0,48.0,45.3,42.0,42,31,21,0.00,40.00,16,13,28,0.00
2013-9-6,92.0,78.7,73.0,45.0,42.1,39.0,35,28,17,0.00,40.00,18,11,30,0.00
2013-9-7,92.0,77.6,71.0,42.0,36.9,33.0,30,24,16,0.00,40.00,15,10,24,0.00
2013-9-8,89.0,76.4,69.0,43.0,37.3,34.0,36,25,16,0.00,40.00,14,7,22,0.00
2013-9-9,87.0,73.5,64.0,49.0,43.3,36.0,52,35,23,0.00,40.00,15,7,25,0.00
2013-9-10,79.0,67.5,62.0,48.0,36.7,29.0,59,34,19,0.00,40.00,19,16,30,0.00
2013-9-11,78.0,67.2,62.0,50.0,39.2,30.0,58,36,23,0.00,40.00,18,15,27,0.00
2013-9-12,84.0,71.1,65.0,41.0,35.8,26.0,40,28,15,0.00,40.00,16,12,25,0.00
2013-9-13,91.0,75.2,67.0,44.0,39.6,35.0,37,28,19,0.00,40.00,13,5,21,0.00
2013-9-14,92.0,79.0,71.0,45.0,39.7,34.0,35,25,13,0.00,40.00,15,7,26,0.00
2013-9-15,88.0,78.3,72.0,44.0,38.3,34.0,36,25,15,0.00,40.00,18,12,30,0.00
2013-9-16,87.0,76.2,68.0,39.0,33.2,27.0,31,21,14,0.00,40.00,19,15,30,0.00
2013-9-17,80.0,67.3,59.0,43.0,33.5,21.0,55,31,11,0.00,40.00,19,14,31,0.00
2013-9-18,67.0,61.5,58.0,40.0,34.5,30.0,50,37,26,0.00,40.00,7,4,13,0.00
2013-9-19,84.0,72.4,63.0,46.0,29.5,22.0,40,22,11,0.00,40.00,10,7,17,0.00
2013-9-20,75.0,66.6,57.0,53.0,42.4,23.0,88,45,16,0.00,40.00,24,13,32,0.00
2013-9-21,66.0,53.7,49.0,53.0,48.8,43.0,100,85,60,0.00,40.00,19,13,34,0.00
2013-9-22,66.0,51.9,43.0,45.0,37.3,31.0,94,62,30,0.00,40.00,12,6,21,0.00
2013-9-23,79.0,64.2,51.0,37.0,33.1,30.0,58,34,17,0.00,40.00,14,8,20,0.00
2013-9-24,80.0,68.2,58.0,36.0,31.9,29.0,43,27,16,0.00,40.00,20,13,29,0.00
2013-9-25,64.0,55.3,47.0,50.0,41.6,36.0,82,60,46,0.00,40.00,22,16,34,0.00
2013-9-26,60.0,47.0,40.0,36.0,32.2,24.0,83,59,30,0.00,40.00,9,6,18,0.00
2013-9-27,66.0,54.0,45.0,31.0,22.8,15.0,53,32,16,0.00,40.00,9,6,19,0.00
2013-9-28,74.0,61.6,52.0,23.0,19.6,16.0,26,20,12,0.00,40.00,10,5,16,0.00
2013-9-29,79.0,67.0,61.0,28.0,20.5,13.0,26,18,10,0.00,40.00,14,7,22,0.00
2013-9-30,78.0,66.7,58.0,35.0,31.0,27.0,39,27,17,0.00,40.00,8,5,19,0.00
2013-10-1,70.0,61.0,57.0,48.0,46.6,43.0,68,60,42,0.00,40.00,19,16,25,0.00
2013-10-2,68.0,59.0,54.0,52.0,43.0,29.0,92,57,35,0.00,40.00,26,16,35,0.00
2013-10-3,72.0,56.8,51.0,35.0,27.1,12.0,49,34,11,0.00,40.00,11,6,24,0.00
2013-10-4,64.0,54.8,45.0,27.0,13.1,7.0,36,20,11,0.00,40.00,12,9,33,0.00
2013-10-5,68.0,55.2,44.0,19.0,14.4,10.0,33,21,12,0.00,40.00,11,8,26,0.00
2013-10-6,76.0,61.2,51.0,15.0,11.2,6.0,20,14,8,0.00,40.00,12,6,26,0.00
2013-10-7,76.0,65.5,55.0,28.0,13.3,8.0,35,14,8,0.00,40.00,18,10,29,0.00
2013-10-8,65.0,55.6,45.0,47.0,33.4,18.0,100,50,22,0.00,40.00,27,17,37,0.00
2013-10-9,44.0,41.1,36.0,44.0,41.1,36.0,100,100,100,0.00,40.00,29,21,43,0.08
2013-10-10,54.0,43.5,35.0,43.0,39.9,35.0,100,89,63,0.00,40.00,16,12,27,0.01
2013-10-11,67.0,54.7,43.0,44.0,36.3,31.0,98,53,29,0.00,40.00,14,6,22,0.00
2013-10-12,69.0,57.7,51.0,41.0,31.7,27.0,56,38,24,0.00,40.00,20,12,31,0.00
2013-10-13,62.0,51.1,44.0,45.0,35.9,25.0,72,57,38,0.00,40.00,21,12,30,0.00
2013-10-14,65.0,54.1,45.0,33.0,28.8,23.0,63,40,25,0.00,40.00,13,8,21,0.00
2013-10-15,67.0,57.2,50.0,26.0,22.8,17.0,34,27,20,0.00,40.00,14,7,22,0.00
2013-10-16,65.0,55.0,46.0,22.0,18.4,16.0,33,24,16,0.00,40.00,9,5,21,0.00
2013-10-17,74.0,60.7,54.0,28.0,23.1,16.0,32,24,15,0.00,40.00,11,4,17,0.00
2013-10-18,72.0,61.8,55.0,26.0,20.2,14.0,32,21,13,0.00,40.00,12,6,20,0.00
2013-10-19,76.0,64.2,56.0,26.0,15.8,10.0,24,16,9,0.00,40.00,9,5,13,0.00
2013-10-20,78.0,66.8,58.0,31.0,15.7,3.0,35,15,8,0.00,40.00,12,6,18,0.00
2013-10-21,76.0,66.0,60.0,21.0,15.5,11.0,21,14,11,0.00,40.00,9,5,13,0.00
2013-10-22,75.0,64.7,57.0,20.0,16.1,13.0,18,15,12,0.00,40.00,10,6,16,0.00
2013-10-23,75.0,63.9,58.0,31.0,20.4,17.0,28,19,13,0.00,40.00,8,5,14,0.00
2013-10-24,77.0,65.4,58.0,43.0,22.5,18.0,44,20,13,0.00,40.00,7,4,12,0.00
2013-10-25,78.0,67.1,60.0,27.0,21.1,18.0,21,18,12,0.00,40.00,6,3,10,0.00
2013-10-26,76.0,67.8,63.0,24.0,20.7,18.0,20,17,12,0.00,40.00,9,3,13,0.00
2013-10-27,73.0,62.8,44.0,45.0,24.2,15.0,100,29,12,0.00,40.00,27,12,34,0.00
2013-10-28,44.0,39.8,38.0,44.0,37.1,-99.9,100,96,76,0.00,40.00,34,25,46,0.11
2013-10-29,44.0,40.0,36.0,42.0,38.5,34.0,100,95,79,0.00,40.00,18,9,25,0.14
2013-10-30,55.0,45.0,38.0,36.0,31.3,23.0,88,61,35,0.00,40.00,9,5,14,0.00
2013-10-31,59.0,50.7,43.0,32.0,26.0,20.0,62,40,25,0.00,40.00,12,8,20,0.00
2013-11-1,64.0,54.8,48.0,26.0,22.2,20.0,33,28,22,0.00,40.00,13,9,24,0.00
2013-11-2,70.0,58.2,52.0,28.0,24.7,21.0,40,28,16,0.00,40.00,17,8,30,0.00
2013-11-3,62.0,52.2,42.0,47.0,34.8,26.0,100,54,35,0.00,40.00,17,9,25,0.00
2013-11-4,59.0,47.7,40.0,40.0,29.6,23.0,100,54,27,0.00,40.00,15,6,26,0.00
2013-11-5,52.0,44.3,37.0,23.0,13.3,2.0,45,30,16,0.00,40.00,14,10,26,0.00
2013-11-6,57.0,48.0,39.0,9.0,6.6,4.0,24,18,14,0.00,40.00,16,13,27,0.00
2013-11-7,65.0,56.0,49.0,19.0,13.1,6.0,21,18,13,0.00,40.00,13,7,24,0.00
2013-11-8,72.0,62.5,54.0,34.0,16.6,7.0,44,19,8,0.00,40.00,16,9,22,0.00
2013-11-9,70.0,59.6,53.0,25.0,12.9,4.0,32,17,8,0.00,40.00,18,11,24,0.00
2013-11-10,68.0,59.1,53.0,17.0,14.3,11.0,22,17,11,0.00,40.00,9,4,14,0.00
2013-11-11,66.0,58.1,51.0,20.0,16.7,14.0,25,20,16,0.00,40.00,13,8,22,0.00
2013-11-12,64.0,60.4,57.0,19.0,14.8,11.0,22,17,14,0.00,40.00,12,10,21,0.00
2013-11-13,68.0,61.3,56.0,23.0,16.5,11.0,26,18,13,0.00,40.00,11,8,16,0.00
2013-11-14,76.0,62.9,57.0,26.0,23.0,20.0,30,22,12,0.00,40.00,14,9,20,0.00
2013-11-15,57.0,50.2,42.0,46.0,36.3,24.0,100,64,32,0.00,40.00,17,12,24,0.00
2013-11-16,44.0,42.2,41.0,44.0,41.8,34.0,100,99,75,0.00,40.00,24,20,36,0.00
2013-11-17,58.0,46.3,40.0,49.0,39.8,33.0,100,81,42,0.00,40.00,16,7,21,0.01
2013-11-18,60.0,49.0,43.0,45.0,39.5,34.0,100,72,48,0.00,40.00,15,8,24,0.00
2013-11-19,53.0,45.1,41.0,48.0,43.4,41.0,100,94,74,0.00,40.00,18,12,25,0.00
2013-11-20,47.0,44.0,42.0,47.0,44.0,42.0,100,100,100,0.00,40.00,20,15,28,0.09
2013-11-21,48.0,43.1,35.0,48.0,43.1,34.0,100,100,100,0.00,40.00,16,9,25,0.68
2013-11-22,34.0,32.4,32.0,34.0,32.4,32.0,100,100,100,0.00,40.00,14,10,27,0.17
2013-11-23,36.0,34.2,32.0,36.0,34.2,32.0,100,100,100,0.00,40.00,9,6,20,0.10
2013-11-24,44.0,38.3,35.0,44.0,37.0,34.0,100,95,78,0.00,40.00,9,6,16,0.00
2013-11-25,54.0,44.0,38.0,35.0,31.8,27.0,85,64,41,0.00,40.00,11,7,14,0.00
2013-11-26,52.0,46.0,41.0,35.0,32.5,30.0,70,60,52,0.00,40.00,14,10,22,0.00
2013-11-27,51.0,44.5,40.0,36.0,33.1,30.0,72,64,51,0.00,40.00,11,8,21,0.00
2013-11-28,48.0,42.4,38.0,34.0,32.1,30.0,77,67,56,0.00,40.00,11,6,17,0.00
2013-11-29,49.0,43.0,39.0,40.0,33.1,31.0,81,68,63,0.00,40.00,12,8,19,0.01
2013-11-30,53.0,46.9,42.0,33.0,30.3,27.0,67,53,43,0.00,40.00,12,8,18,0.00
2013-12-1,55.0,48.4,44.0,28.0,26.7,24.0,51,43,32,0.00,40.00,11,8,17,0.00
2013-12-2,69.0,58.4,49.0,24.0,17.7,10.0,36,21,14,0.00,40.00,14,6,19,0.00
2013-12-3,53.0,46.0,31.0,43.0,31.7,21.0,100,63,31,0.00,40.00,23,16,31,0.02
2013-12-4,41.0,31.5,25.0,29.0,16.3,12.0,100,55,33,0.00,40.00,10,5,21,0.02
2013-12-5,40.0,31.7,26.0,22.0,9.6,1.0,70,40,27,0.00,40.00,9,4,11,0.00
2013-12-6,40.0,33.7,29.0,31.0,28.0,24.0,100,81,59,0.00,40.00,24,17,31,0.00
2013-12-7,33.0,28.4,24.0,33.0,27.1,12.0,100,95,79,0.00,40.00,31,14,39,0.04
2013-12-8,32.0,26.0,23.0,16.0,11.7,6.0,71,54,43,0.00,40.00,12,5,19,0.00
2013-12-9,32.0,24.6,18.0,9.0,0.3,-8.0,62,37,21,0.00,40.00,18,13,35,0.00
2013-12-10,35.0,29.8,22.0,-1.0,-3.7,-8.0,28,23,20,0.00,40.00,21,15,32,0.00
2013-12-11,41.0,36.2,31.0,7.0,2.0,-3.0,27,23,21,0.00,40.00,16,13,25,0.00
2013-12-12,49.0,43.2,38.0,11.0,8.0,3.0,28,23,17,0.00,40.00,12,8,23,0.00
2013-12-13,56.0,47.8,41.0,11.0,8.1,3.0,26,20,15,0.00,40.00,14,5,26,0.00
2013-12-14,48.0,41.5,36.0,17.0,14.1,10.0,41,33,27,0.00,40.00,14,11,26,0.00
2013-12-15,50.0,44.8,39.0,16.0,15.0,13.0,35,30,24,0.00,40.00,19,16,32,0.00
2013-12-16,55.0,50.9,46.0,17.0,15.0,12.0,26,24,21,0.00,40.00,16,14,26,0.00
2013-12-17,58.0,53.1,49.0,18.0,15.6,14.0,25,22,19,0.00,40.00,13,11,23,0.00
2013-12-18,63.0,53.7,40.0,43.0,24.8,16.0,100,39,19,0.00,40.00,26,11,37,0.00
2013-12-19,40.0,35.8,33.0,40.0,35.8,32.0,100,100,100,0.00,40.00,27,15,40,0.01
2013-12-20,43.0,37.0,31.0,33.0,26.7,18.0,100,70,37,0.00,40.00,9,5,14,0.01
2013-12-21,53.0,45.8,40.0,37.0,29.3,20.0,63,53,43,0.00,40.00,14,7,18,0.00
2013-12-22,56.0,47.1,42.0,32.0,28.2,25.0,57,48,37,0.00,40.00,12,4,21,0.00
2013-12-23,51.0,45.0,41.0,28.0,26.1,24.0,52,48,41,0.00,40.00,15,12,24,0.00
2013-12-24,53.0,46.8,43.0,29.0,27.3,26.0,54,47,39,0.00,40.00,15,12,26,0.00
2013-12-25,52.0,45.5,41.0,27.0,21.0,10.0,52,39,24,0.00,40.00,13,11,25,0.00
2013-12-26,51.0,46.5,42.0,13.0,9.8,6.0,29,23,18,0.00,40.00,15,13,26,0.00
2013-12-27,56.0,51.1,47.0,6.0,2.6,-2.0,17,13,10,0.00,40.00,14,10,24,0.00
2013-12-28,68.0,56.5,50.0,8.0,0.8,-8.0,16,11,5,0.00,40.00,10,5,17,0.00
2013-12-29,51.0,45.6,38.0,12.0,4.8,0.0,27,19,15,0.00,40.00,13,10,27,0.00
2013-12-30,62.0,51.5,43.0,6.0,2.5,-2.0,16,13,8,0.00,40.00,11,5,20,0.00
2013-12-31,67.0,53.0,47.0,7.0,3.5,-4.0,19,13,9,0.00,40.00,9,5,12,0.00
2014-1-1,55.0,48.3,43.0,15.0,8.0,3.0,23,19,16,0.00,40.00,14,11,22,0.00
2014-1-2,55.0,50.0,47.0,21.0,18.6,12.0,33,29,22,0.00,40.00,12,9,20,0.00